createdAt,value
2023-04-12T00:02:02.642Z,28.25
2023-04-12T00:04:34.844Z,29.30
2023-04-12T00:07:03.634Z,30.70
2023-04-12T00:09:32.610Z,29.58
2023-04-12T00:12:00.578Z,26.98
2023-04-12T00:14:28.955Z,33.55
2023-04-12T00:17:01.642Z,29.98
2023-04-12T00:19:31.650Z,21.77
2023-04-12T00:22:05.329Z,28.92
2023-04-12T00:24:34.208Z,31.60
2023-04-12T00:27:02.773Z,27.58
2023-04-12T00:29:37.853Z,27.40
2023-04-12T00:32:07.049Z,31.45
2023-04-12T00:34:35.822Z,27.33
2023-04-12T00:37:08.033Z,26.23
2023-04-12T00:39:37.667Z,26.75
2023-04-12T00:42:06.764Z,28.90
2023-04-12T00:44:35.556Z,25.45
2023-04-12T00:47:06.229Z,33.50
2023-04-12T00:49:34.887Z,28.25
2023-04-12T00:52:05.323Z,39.20
2023-04-12T00:54:34.797Z,42.15
2023-04-12T00:57:03.299Z,48.85
2023-04-12T00:59:32.958Z,38.47
2023-04-12T01:02:03.513Z,43.17
2023-04-12T01:04:35.319Z,42.70
2023-04-12T01:08:05.116Z,41.17
2023-04-12T01:10:36.057Z,41.95
2023-04-12T01:13:12.008Z,46.80
2023-04-12T01:16:08.116Z,44.58
2023-04-12T01:18:41.726Z,33.78
2023-04-12T01:21:41.287Z,32.70
2023-04-12T01:24:13.825Z,35.20
2023-04-12T01:26:44.709Z,28.77
2023-04-12T01:29:16.923Z,22.95
2023-04-12T01:31:59.885Z,28.25
2023-04-12T01:34:32.681Z,24.48
2023-04-12T01:37:05.302Z,21.88
2023-04-12T01:39:34.140Z,22.38
2023-04-12T01:42:04.759Z,17.67
2023-04-12T01:44:33.147Z,18.17
2023-04-12T01:47:01.330Z,17.70
2023-04-12T01:49:36.320Z,20.30
2023-04-12T01:52:14.591Z,22.40
2023-04-12T01:54:44.551Z,16.98
2023-04-12T01:57:12.711Z,17.88
2023-04-12T01:59:42.418Z,21.08
2023-04-12T02:02:14.006Z,17.48
2023-04-12T02:04:44.824Z,19.77
2023-04-12T02:07:14.061Z,19.15
2023-04-12T02:09:52.874Z,22.35
2023-04-12T02:12:30.897Z,22.77
2023-04-12T02:15:00.548Z,23.20
2023-04-12T02:17:37.464Z,26.25
2023-04-12T02:20:12.617Z,25.55
2023-04-12T02:22:42.007Z,27.38
2023-04-12T02:25:13.700Z,33.05
2023-04-12T02:27:44.395Z,27.98
2023-04-12T02:30:15.424Z,31.48
2023-04-12T02:32:48.369Z,27.08
2023-04-12T02:35:25.564Z,33.20
2023-04-12T02:38:08.047Z,29.35
2023-04-12T02:40:42.957Z,29.17
2023-04-12T02:43:17.006Z,28.88
2023-04-12T02:45:48.427Z,31.63
2023-04-12T02:48:16.683Z,33.85
2023-04-12T02:50:45.667Z,37.33
2023-04-12T02:53:22.079Z,34.78
2023-04-12T02:56:12.336Z,36.78
2023-04-12T02:58:40.774Z,37.67
2023-04-12T03:01:13.577Z,28.90
2023-04-12T03:04:02.900Z,24.38
2023-04-12T03:06:52.680Z,23.02
2023-04-12T03:09:30.132Z,28.58
2023-04-12T03:11:58.571Z,26.55
2023-04-12T03:14:26.789Z,28.25
2023-04-12T03:16:54.937Z,25.42
2023-04-12T03:19:24.729Z,26.80
2023-04-12T03:22:00.166Z,27.20
2023-04-12T03:24:30.481Z,29.70
2023-04-12T03:26:59.169Z,23.73
2023-04-12T03:29:28.283Z,28.48
2023-04-12T03:31:58.244Z,25.40
2023-04-12T03:34:32.437Z,26.80
2023-04-12T03:37:10.142Z,29.27
2023-04-12T03:39:48.336Z,29.45
2023-04-12T03:42:32.196Z,27.42
2023-04-12T03:45:07.107Z,34.25
2023-04-12T03:47:35.917Z,23.58
2023-04-12T03:52:41.904Z,28.60
2023-04-12T03:55:10.210Z,24.60
2023-04-12T03:57:39.718Z,26.45
2023-04-12T04:00:10.531Z,24.05
2023-04-12T04:03:11.128Z,28.33
2023-04-12T04:05:48.801Z,26.45
2023-04-12T04:08:20.695Z,26.08
2023-04-12T04:10:53.061Z,20.58
2023-04-12T04:13:34.891Z,22.60
2023-04-12T04:16:09.935Z,22.25
2023-04-12T04:18:40.039Z,23.25
2023-04-12T04:21:10.872Z,21.40
2023-04-12T04:23:44.717Z,24.70
2023-04-12T04:26:20.677Z,21.05
2023-04-12T04:29:03.975Z,22.75
2023-04-12T04:31:38.018Z,19.35
2023-04-12T04:34:10.508Z,25.15
2023-04-12T04:36:43.979Z,18.83
2023-04-12T04:39:17.971Z,22.38
2023-04-12T04:41:46.993Z,23.52
2023-04-12T04:44:26.164Z,18.60
2023-04-12T04:46:59.335Z,21.33
2023-04-12T04:49:34.030Z,22.08
2023-04-12T04:52:09.646Z,24.98
2023-04-12T04:54:38.295Z,22.83
2023-04-12T04:57:12.521Z,19.58
2023-04-12T04:59:42.415Z,22.15
2023-04-12T05:02:19.332Z,20.40
2023-04-12T05:04:50.210Z,25.80
2023-04-12T05:07:21.700Z,21.73
2023-04-12T05:09:51.001Z,25.15
2023-04-12T05:12:21.673Z,26.13
2023-04-12T05:15:10.602Z,24.13
2023-04-12T05:17:42.925Z,31.90
2023-04-12T05:20:13.749Z,28.55
2023-04-12T05:22:42.521Z,23.30
2023-04-12T05:25:11.619Z,30.48
2023-04-12T05:27:56.309Z,29.13
2023-04-12T05:30:24.701Z,25.40
2023-04-12T05:32:53.238Z,30.08
2023-04-12T05:35:23.235Z,26.27
2023-04-12T05:37:55.578Z,26.13
2023-04-12T05:40:26.670Z,28.40
2023-04-12T05:42:59.361Z,21.88
2023-04-12T05:45:33.020Z,23.70
2023-04-12T05:48:04.737Z,26.00
2023-04-12T05:50:33.245Z,23.45
2023-04-12T05:53:02.468Z,24.38
2023-04-12T05:55:34.900Z,26.27
2023-04-12T05:58:04.219Z,22.33
2023-04-12T06:00:33.984Z,23.60
2023-04-12T06:03:05.089Z,25.23
2023-04-12T06:05:37.851Z,26.48
2023-04-12T06:08:14.816Z,23.80
2023-04-12T06:10:56.350Z,29.27
2023-04-12T06:13:31.893Z,21.13
2023-04-12T06:16:01.014Z,22.95
2023-04-12T06:18:31.134Z,21.83
2023-04-12T06:21:03.003Z,21.52
2023-04-12T06:23:31.609Z,17.08
2023-04-12T06:26:00.285Z,20.00
2023-04-12T06:28:34.360Z,19.77
2023-04-12T06:31:06.897Z,19.73
2023-04-12T06:33:40.017Z,13.80
2023-04-12T06:36:15.716Z,20.63
2023-04-12T06:38:44.974Z,19.58
2023-04-12T06:41:14.868Z,21.85
2023-04-12T06:43:47.653Z,19.75
2023-04-12T06:46:24.012Z,20.77
2023-04-12T06:49:13.344Z,20.95
2023-04-12T06:51:46.930Z,20.25
2023-04-12T06:54:20.008Z,19.83
2023-04-12T06:56:51.248Z,24.77
2023-04-12T06:59:19.496Z,33.15
2023-04-12T07:01:54.936Z,26.42
2023-04-12T07:04:23.406Z,23.70
2023-04-12T07:06:57.098Z,21.88
2023-04-12T07:09:27.087Z,20.50
2023-04-12T07:11:55.617Z,22.58
2023-04-12T07:14:26.558Z,22.75
2023-04-12T07:16:55.206Z,20.92
2023-04-12T07:19:23.350Z,24.23
2023-04-12T07:21:51.859Z,22.92
2023-04-12T07:24:20.974Z,24.85
2023-04-12T07:26:50.193Z,24.15
2023-04-12T07:29:23.914Z,22.40
2023-04-12T07:31:54.495Z,25.45
2023-04-12T07:34:26.347Z,22.13
2023-04-12T07:36:57.177Z,21.58
2023-04-12T07:39:25.068Z,24.98
2023-04-12T07:41:59.777Z,24.17
2023-04-12T07:44:28.195Z,22.05
2023-04-12T07:46:58.246Z,22.52
2023-04-12T07:49:31.066Z,27.75
2023-04-12T07:52:02.695Z,23.67
2023-04-12T07:54:43.950Z,23.92
2023-04-12T08:00:07.720Z,22.70
2023-04-12T08:02:45.377Z,26.77
2023-04-12T08:05:15.426Z,24.65
2023-04-12T08:07:59.317Z,26.17
2023-04-12T08:10:42.239Z,25.73
2023-04-12T08:13:28.241Z,25.15
2023-04-12T08:15:58.351Z,29.30
2023-04-12T08:18:29.556Z,27.17
2023-04-12T08:20:58.404Z,26.50
2023-04-12T08:23:27.238Z,23.55
2023-04-12T08:26:03.621Z,21.27
2023-04-12T08:28:33.777Z,23.02
2023-04-12T08:31:04.745Z,23.45
2023-04-12T08:33:33.844Z,21.10
2023-04-12T08:36:02.197Z,28.70
2023-04-12T08:38:44.216Z,19.80
2023-04-12T08:41:16.578Z,23.25
2023-04-12T08:43:47.603Z,19.45
2023-04-12T08:46:16.201Z,20.48
2023-04-12T08:48:50.815Z,19.48
2023-04-12T08:51:21.966Z,23.17
2023-04-12T08:53:51.137Z,22.73
2023-04-12T08:56:23.734Z,26.08
2023-04-12T08:58:52.183Z,30.45
2023-04-12T09:01:21.527Z,29.83
2023-04-12T09:03:52.796Z,32.30
2023-04-12T09:06:44.952Z,29.50
2023-04-12T09:09:12.982Z,33.58
2023-04-12T09:11:44.308Z,32.80
2023-04-12T09:14:23.439Z,24.35
2023-04-12T09:16:55.521Z,22.52
2023-04-12T09:19:37.723Z,27.25
2023-04-12T09:22:05.805Z,21.25
2023-04-12T09:24:47.840Z,21.15
2023-04-12T09:27:21.399Z,22.48
2023-04-12T09:29:52.108Z,18.67
2023-04-12T09:32:40.331Z,21.23
2023-04-12T09:35:10.297Z,20.08
2023-04-12T09:37:39.845Z,17.50
2023-04-12T09:40:11.412Z,18.73
2023-04-12T09:42:53.864Z,12.95
2023-04-12T09:45:28.239Z,18.35
2023-04-12T09:47:59.513Z,18.70
2023-04-12T09:50:28.997Z,17.50
2023-04-12T09:53:02.442Z,18.30
2023-04-12T09:55:32.528Z,14.63
2023-04-12T09:58:21.605Z,16.30
2023-04-12T10:00:53.762Z,19.35
2023-04-12T10:03:25.260Z,16.17
2023-04-12T10:05:56.470Z,23.02
2023-04-12T10:08:26.876Z,17.77
2023-04-12T10:10:55.648Z,20.95
2023-04-12T10:13:24.251Z,21.73
2023-04-12T10:15:56.563Z,27.17
2023-04-12T10:18:24.761Z,22.20
2023-04-12T10:20:55.498Z,19.80
2023-04-12T10:23:25.836Z,28.67
2023-04-12T10:25:55.836Z,23.98
2023-04-12T10:28:25.335Z,24.52
2023-04-12T10:30:57.974Z,22.92
2023-04-12T10:33:34.325Z,22.83
2023-04-12T10:36:11.442Z,21.55
2023-04-12T10:39:12.422Z,24.63
2023-04-12T10:42:01.824Z,27.13
2023-04-12T10:44:30.124Z,24.30
2023-04-12T10:47:00.732Z,29.67
2023-04-12T10:49:29.316Z,28.63
2023-04-12T10:52:02.898Z,33.50
2023-04-12T10:54:35.490Z,37.35
2023-04-12T10:57:06.042Z,32.45
2023-04-12T10:59:52.752Z,34.17
2023-04-12T11:02:22.523Z,36.95
2023-04-12T11:05:11.715Z,36.67
2023-04-12T11:08:06.350Z,38.83
2023-04-12T11:10:41.673Z,43.53
2023-04-12T11:13:16.000Z,41.10
2023-04-12T11:15:44.095Z,39.58
2023-04-12T11:18:15.035Z,34.67
2023-04-12T11:20:43.210Z,34.33
2023-04-12T11:23:11.777Z,40.22
2023-04-12T11:25:41.016Z,39.53
2023-04-12T11:28:25.205Z,34.95
2023-04-12T11:30:56.969Z,32.88
2023-04-12T11:33:42.540Z,40.85
2023-04-12T11:36:14.669Z,33.58
2023-04-12T11:38:49.974Z,36.30
2023-04-12T11:41:18.904Z,35.67
2023-04-12T11:43:49.849Z,32.13
2023-04-12T11:46:39.321Z,34.95
2023-04-12T11:49:09.815Z,31.40
2023-04-12T11:51:40.670Z,34.15
2023-04-12T11:54:29.809Z,34.00
2023-04-12T11:56:58.267Z,46.38
2023-04-12T11:59:54.722Z,32.78
2023-04-12T12:02:24.608Z,32.75
2023-04-12T12:04:56.849Z,32.13
2023-04-12T12:07:25.199Z,25.10
2023-04-12T12:09:57.222Z,23.58
2023-04-12T12:12:25.748Z,28.90
2023-04-12T12:14:54.593Z,27.02
2023-04-12T12:17:22.605Z,30.60
2023-04-12T12:19:51.288Z,28.33
2023-04-12T12:22:21.855Z,31.85
2023-04-12T12:24:57.835Z,25.73
2023-04-12T12:27:35.792Z,31.55
2023-04-12T12:30:08.170Z,27.95
2023-04-12T12:33:19.780Z,30.05
2023-04-12T12:35:48.410Z,32.78
2023-04-12T12:38:16.631Z,32.25
2023-04-12T12:40:45.695Z,24.58
2023-04-12T12:43:20.724Z,28.35
2023-04-12T12:45:49.449Z,29.02
2023-04-12T12:48:21.644Z,26.10
2023-04-12T12:50:50.211Z,29.20
2023-04-12T12:53:18.408Z,30.13
2023-04-12T12:55:50.573Z,35.63
2023-04-12T12:58:23.730Z,33.42
2023-04-12T13:00:55.911Z,29.70
2023-04-12T13:03:26.699Z,33.28
2023-04-12T13:05:56.884Z,29.55
2023-04-12T13:08:58.642Z,32.00
2023-04-12T13:11:33.233Z,38.10
2023-04-12T13:14:03.077Z,39.33
2023-04-12T13:16:34.563Z,33.70
2023-04-12T13:19:11.731Z,32.33
2023-04-12T13:21:44.584Z,26.95
2023-04-12T13:24:14.493Z,37.35
2023-04-12T13:26:51.860Z,29.35
2023-04-12T13:29:19.892Z,31.83
2023-04-12T13:31:50.967Z,35.25
2023-04-12T13:34:23.669Z,36.08
2023-04-12T13:36:52.334Z,36.25
2023-04-12T13:39:25.562Z,35.65
2023-04-12T13:41:54.221Z,38.25
2023-04-12T13:44:23.214Z,29.77
2023-04-12T13:46:55.101Z,31.10
2023-04-12T13:49:23.108Z,35.30
2023-04-12T13:51:51.982Z,33.45
2023-04-12T13:54:22.861Z,33.85
2023-04-12T13:56:51.453Z,36.65
2023-04-12T13:59:20.018Z,33.53
2023-04-12T14:01:48.231Z,37.22
2023-04-12T14:04:16.449Z,37.13
2023-04-12T14:06:45.767Z,36.67
2023-04-12T14:09:29.540Z,34.20
2023-04-12T14:11:58.524Z,31.77
2023-04-12T14:14:28.058Z,28.55
2023-04-12T14:16:57.412Z,31.60
2023-04-12T14:19:25.724Z,34.85
2023-04-12T14:21:54.025Z,34.65
2023-04-12T14:24:28.442Z,45.80
2023-04-12T14:26:59.602Z,45.55
2023-04-12T14:29:27.957Z,37.13
2023-04-12T14:32:02.075Z,35.25
2023-04-12T14:34:31.604Z,33.00
2023-04-12T14:37:03.038Z,33.95
2023-04-12T14:39:31.525Z,40.75
2023-04-12T14:42:03.941Z,30.25
2023-04-12T14:44:35.873Z,31.48
2023-04-12T19:40:33.866Z,34.67
2023-04-12T19:43:01.895Z,31.27
2023-04-12T19:45:30.702Z,38.80
2023-04-12T19:47:58.847Z,47.65
2023-04-12T19:50:31.048Z,34.53
2023-04-12T19:52:59.472Z,34.03
2023-04-12T19:55:28.309Z,34.70
2023-04-12T19:57:58.730Z,38.08
2023-04-12T20:00:27.422Z,34.88
2023-04-12T20:02:55.801Z,39.05
2023-04-12T20:05:24.422Z,37.58
2023-04-12T20:07:56.218Z,32.97
2023-04-12T20:10:24.899Z,30.23
2023-04-12T20:12:53.488Z,32.83
2023-04-12T20:15:22.882Z,35.17
2023-04-12T20:17:52.183Z,31.50
2023-04-12T20:20:22.320Z,30.70
2023-04-12T20:22:53.718Z,33.60
2023-04-12T20:25:21.996Z,32.47
2023-04-12T20:27:52.422Z,31.50
2023-04-12T20:30:21.272Z,36.92
2023-04-12T20:33:06.987Z,34.30
2023-04-12T20:35:36.965Z,28.30
2023-04-12T20:38:07.329Z,25.88
2023-04-12T20:40:35.997Z,31.50
2023-04-12T20:43:06.055Z,28.80
2023-04-12T20:45:35.032Z,26.27
2023-04-12T20:48:03.328Z,30.75
2023-04-12T20:50:33.167Z,26.27
2023-04-12T20:53:05.524Z,31.23
2023-04-12T20:55:35.057Z,26.98
2023-04-12T20:58:23.430Z,30.42
2023-04-12T21:00:54.979Z,23.20
2023-04-12T21:03:28.837Z,32.55
2023-04-12T21:05:57.824Z,27.25
2023-04-12T21:08:31.688Z,26.00
2023-04-12T21:11:01.516Z,26.95
2023-04-12T21:13:33.565Z,26.50
2023-04-12T21:16:04.237Z,25.88
2023-04-12T21:18:34.529Z,31.38
2023-04-12T21:21:02.711Z,30.13
2023-04-12T21:23:31.281Z,32.60
2023-04-12T21:25:59.301Z,24.98
2023-04-12T21:28:29.712Z,29.60
2023-04-12T21:30:58.496Z,26.17
2023-04-12T21:33:27.093Z,29.10
2023-04-12T21:35:56.510Z,30.48
2023-04-12T21:38:25.315Z,28.63
2023-04-12T21:40:57.455Z,29.45
2023-04-12T21:43:27.049Z,26.00
2023-04-12T21:45:55.117Z,33.05
2023-04-12T21:48:23.109Z,33.00
2023-04-12T21:50:51.810Z,31.33
2023-04-12T21:53:19.760Z,29.55
2023-04-12T21:55:50.317Z,33.15
2023-04-12T21:58:18.262Z,34.10
2023-04-12T22:00:48.049Z,36.15
2023-04-12T22:03:16.351Z,43.75
2023-04-12T22:05:51.174Z,45.70
2023-04-12T22:08:26.461Z,38.55
2023-04-12T22:10:54.571Z,50.72
2023-04-12T22:13:25.294Z,53.25
2023-04-12T22:15:55.301Z,65.40
2023-04-12T22:18:23.658Z,68.97
2023-04-12T22:20:55.485Z,62.70
2023-04-12T22:23:24.204Z,50.60
2023-04-12T22:25:58.435Z,51.58
2023-04-12T22:28:34.175Z,43.92
2023-04-12T22:31:02.820Z,45.58
2023-04-12T22:33:31.374Z,43.38
2023-04-12T22:36:02.314Z,50.30
2023-04-12T22:38:31.152Z,44.10
2023-04-12T22:41:02.229Z,50.92
2023-04-12T22:43:42.148Z,53.80
2023-04-12T22:46:16.242Z,54.22
2023-04-12T22:48:50.088Z,52.00
2023-04-12T22:51:20.393Z,49.72
2023-04-12T22:53:50.500Z,57.15
2023-04-12T22:56:18.839Z,57.13
2023-04-12T22:58:48.048Z,53.78
2023-04-12T23:01:16.177Z,55.90
2023-04-12T23:03:46.019Z,58.00
2023-04-12T23:06:19.807Z,53.35
2023-04-12T23:08:49.839Z,50.97
2023-04-12T23:11:18.192Z,54.17
2023-04-12T23:13:46.364Z,55.33
2023-04-12T23:16:14.242Z,47.45
2023-04-12T23:18:45.169Z,44.83
2023-04-12T23:21:13.103Z,35.28
2023-04-12T23:23:50.666Z,25.88
2023-04-12T23:26:20.074Z,15.10
2023-04-12T23:28:48.116Z,15.27
2023-04-12T23:31:17.013Z,12.55
2023-04-12T23:33:45.545Z,13.55
2023-04-12T23:36:14.227Z,9.52
2023-04-12T23:38:44.687Z,8.20
2023-04-12T23:41:15.297Z,8.90
2023-04-12T23:43:44.684Z,8.73
2023-04-12T23:46:13.803Z,9.65
2023-04-12T23:48:42.905Z,8.63
2023-04-12T23:51:10.955Z,11.43
2023-04-12T23:53:38.953Z,11.07
2023-04-12T23:56:08.226Z,9.98
2023-04-12T23:58:36.732Z,8.77
